NCAR-RAP Real-Time Weather Data

Output produced by METARs form (08 May 2021  01:37 UTC)
found at http://weather.rap.ucar.edu/surface/
 
KROA 080054Z 32005KT 10SM CLR 11/M01 A2995 RMK AO2 SLP139 T01111011
KROA 072354Z 32013KT 10SM FEW075 14/M02 A2994 RMK AO2 PK WND 30026/2314 SLP134 60000 T01391022 10161 20106 53004
KROA 072254Z 31012G24KT 10SM FEW075 15/M02 A2993 RMK AO2 PK WND 28034/2227 SLP132 T01501017
KROA 072154Z 30018G28KT 10SM SCT070 16/M01 A2993 RMK AO2 PK WND 33029/2121 RAE2056 SLP131 P0000 T01561006
KROA 072054Z 30013KT 10SM -RA SCT055 SCT075 BKN085 15/03 A2992 RMK AO2 PK WND 30034/2039 RAB26 SLP131 P0000 60000 T01500033 55003
KROA 071954Z 29015G30KT 10SM FEW047 SCT060 BKN075 15/02 A2992 RMK AO2 PK WND 31030/1949 RAB38E47 SLP129 P0000 T01500022
KROA 071854Z 28012G21KT 10SM FEW049 SCT055 BKN100 15/05 A2993 RMK AO2 PK WND 27027/1837 RAE13 SLP131 P0000 T01500050
KROA 071754Z 30019G27KT 10SM -RA BKN050 OVC065 11/06 A2993 RMK AO2 PK WND 29027/1753 RAB39 SLP135 P0000 60001 T01110056 10150 20106 55002
KROA 071654Z 32013G19KT 10SM FEW042 FEW080 SCT120 15/06 A2992 RMK AO2 RAB02E17 SLP130 P0000 T01500056
KROA 071554Z 29011KT 10SM OVC075 13/06 A2994 RMK AO2 RAE09 SLP136 P0000 T01330056
KROA 071454Z 28003KT 7SM -RA OVC048 11/06 A2994 RMK AO2 RAE04B36 SLP136 P0001 60001 T01110061 53009
KROA 071354Z 00000KT 10SM -RA OVC065 12/06 A2992 RMK AO2 RAB48 SLP130 P0000 T01170056
KROA 071254Z 30005KT 10SM SCT065 OVC080 11/05 A2992 RMK AO2 SLP128 T01110050
KROA 071154Z 00000KT 10SM SCT110 11/05 A2991 RMK AO2 SLP125 T01110050 10111 20072 55000
KROA 071054Z 09003KT 10SM FEW120 FEW150 BKN180 08/05 A2990 RMK AO2 SLP123 T00830050
KROA 070954Z 00000KT 10SM SCT120 BKN200 07/05 A2990 RMK AO2 SLP122 T00720050